createdAt,value
2022-09-06T00:00:57.115Z,1.95
2022-09-06T00:03:24.264Z,2.13
2022-09-06T00:05:51.022Z,1.98
2022-09-06T00:08:17.557Z,2.30
2022-09-06T00:10:44.098Z,2.40
2022-09-06T00:13:11.799Z,1.90
2022-09-06T00:15:38.584Z,2.17
2022-09-06T00:18:07.621Z,2.17
2022-09-06T00:20:37.774Z,1.95
2022-09-06T00:23:06.660Z,2.42
2022-09-06T00:25:33.612Z,14.68
2022-09-06T00:28:05.342Z,8.73
2022-09-06T00:30:33.443Z,4.90
2022-09-06T00:33:00.383Z,4.28
2022-09-06T00:35:28.957Z,2.75
2022-09-06T00:38:00.616Z,2.47
2022-09-06T00:40:29.922Z,2.58
2022-09-06T00:42:57.787Z,2.13
2022-09-06T00:45:27.398Z,2.35
2022-09-06T00:47:54.780Z,2.72
2022-09-06T00:50:21.824Z,2.47
2022-09-06T00:52:52.060Z,2.22
2022-09-06T00:55:20.220Z,1.83
2022-09-06T01:00:14.037Z,1.90
2022-09-06T01:02:40.868Z,1.95
2022-09-06T01:05:07.949Z,2.35
2022-09-06T01:07:58.715Z,2.33
2022-09-06T01:11:02.938Z,1.80
2022-09-06T01:13:50.822Z,2.25
2022-09-06T01:19:04.712Z,1.63
2022-09-06T01:22:12.911Z,2.08
2022-09-06T01:25:10.367Z,1.92
2022-09-06T01:28:04.675Z,2.03
2022-09-06T01:30:34.703Z,2.00
2022-09-06T01:33:16.691Z,1.95
2022-09-06T01:35:51.870Z,2.17
2022-09-06T01:38:19.232Z,1.83
2022-09-06T01:40:45.801Z,2.33
2022-09-06T01:43:18.272Z,2.78
2022-09-06T01:46:00.945Z,1.95
2022-09-06T01:48:45.310Z,2.30
2022-09-06T01:51:27.609Z,1.88
2022-09-06T01:54:21.576Z,1.67
2022-09-06T01:56:56.786Z,1.80
2022-09-06T01:59:35.167Z,1.80
2022-09-06T02:02:10.789Z,1.88
2022-09-06T02:04:46.972Z,2.10
2022-09-06T02:07:25.081Z,1.58
2022-09-06T02:12:28.078Z,1.52
2022-09-06T02:15:20.282Z,2.67
2022-09-06T02:17:53.273Z,2.47
2022-09-06T02:20:24.789Z,2.25
2022-09-06T02:22:53.315Z,2.20
2022-09-06T02:25:32.748Z,2.08
2022-09-06T02:27:59.509Z,2.20
2022-09-06T02:30:26.201Z,2.88
2022-09-06T02:33:05.276Z,2.58
2022-09-06T02:35:32.326Z,2.45
2022-09-06T02:37:59.174Z,2.03
2022-09-06T02:40:26.018Z,2.25
2022-09-06T02:42:52.542Z,2.30
2022-09-06T02:45:19.182Z,2.17
2022-09-06T02:47:45.792Z,2.55
2022-09-06T02:50:12.315Z,2.28
2022-09-06T02:52:38.913Z,2.00
2022-09-06T02:55:06.154Z,2.33
2022-09-06T02:57:32.721Z,2.10
2022-09-06T02:59:59.308Z,1.90
2022-09-06T03:02:25.876Z,1.77
2022-09-06T03:04:52.500Z,1.80
2022-09-06T03:07:19.077Z,2.17
2022-09-06T03:09:45.837Z,2.63
2022-09-06T03:12:12.544Z,2.47
2022-09-06T03:14:39.150Z,2.20
2022-09-06T03:17:05.690Z,2.17
2022-09-06T03:19:32.266Z,1.90
2022-09-06T03:21:58.843Z,2.38
2022-09-06T03:24:25.367Z,1.75
2022-09-06T03:26:51.918Z,1.88
2022-09-06T03:29:18.499Z,2.13
2022-09-06T03:31:45.051Z,2.30
2022-09-06T03:34:11.645Z,2.50
2022-09-06T03:36:38.254Z,2.22
2022-09-06T03:39:04.807Z,2.47
2022-09-06T03:41:31.414Z,2.47
2022-09-06T03:43:57.936Z,2.47
2022-09-06T03:46:24.557Z,2.22
2022-09-06T03:48:51.256Z,2.40
2022-09-06T03:51:17.820Z,1.95
2022-09-06T03:53:44.362Z,2.42
2022-09-06T03:56:11.082Z,2.10
2022-09-06T03:58:37.679Z,1.67
2022-09-06T04:01:07.568Z,2.10
2022-09-06T04:03:35.155Z,2.15
2022-09-06T04:06:02.251Z,2.42
2022-09-06T04:08:29.212Z,2.00
2022-09-06T04:10:57.112Z,2.03
2022-09-06T04:13:24.560Z,2.22
2022-09-06T04:15:51.988Z,1.98
2022-09-06T04:18:19.477Z,2.22
2022-09-06T04:20:49.266Z,2.55
2022-09-06T04:23:16.513Z,2.40
2022-09-06T04:25:50.980Z,2.40
2022-09-06T04:28:18.444Z,2.20
2022-09-06T04:31:04.553Z,2.55
2022-09-06T04:33:33.737Z,1.98
2022-09-06T04:36:01.686Z,2.30
2022-09-06T04:38:30.151Z,2.60
2022-09-06T04:40:56.715Z,2.13
2022-09-06T04:43:23.945Z,3.40
2022-09-06T04:45:50.587Z,2.88
2022-09-06T04:48:17.252Z,2.83
2022-09-06T04:50:43.934Z,2.42
2022-09-06T04:53:10.505Z,2.33
2022-09-06T04:55:37.699Z,2.15
2022-09-06T04:58:04.887Z,2.53
2022-09-06T05:00:33.531Z,2.70
2022-09-06T05:03:00.511Z,2.70
2022-09-06T05:05:27.118Z,2.53
2022-09-06T05:07:55.019Z,2.97
2022-09-06T05:10:23.141Z,2.10
2022-09-06T05:15:17.795Z,2.17
2022-09-06T05:17:44.424Z,2.55
2022-09-06T05:20:12.213Z,2.55
2022-09-06T05:22:39.849Z,3.20
2022-09-06T05:25:07.820Z,2.75
2022-09-06T05:30:01.058Z,1.55
2022-09-06T05:32:27.625Z,2.20
2022-09-06T05:34:54.219Z,2.95
2022-09-06T05:37:20.815Z,2.60
2022-09-06T05:39:47.458Z,2.17
2022-09-06T05:42:19.011Z,2.15
2022-09-06T05:44:45.940Z,2.25
2022-09-06T05:47:12.576Z,3.15
2022-09-06T05:49:39.163Z,2.80
2022-09-06T05:52:05.800Z,2.35
2022-09-06T05:54:32.305Z,2.22
2022-09-06T05:56:58.815Z,2.85
2022-09-06T05:59:25.448Z,3.00
2022-09-06T06:01:53.525Z,2.45
2022-09-06T06:06:47.236Z,2.20
2022-09-06T06:09:13.962Z,2.28
2022-09-06T06:11:41.249Z,3.08
2022-09-06T06:14:08.616Z,2.13
2022-09-06T06:16:35.613Z,2.55
2022-09-06T06:19:02.307Z,2.33
2022-09-06T06:21:30.789Z,2.85
2022-09-06T06:24:00.493Z,2.08
2022-09-06T06:26:29.532Z,2.30
2022-09-06T06:28:56.227Z,2.63
2022-09-06T06:31:22.940Z,1.90
2022-09-06T06:33:50.240Z,1.85
2022-09-06T06:36:16.801Z,1.95
2022-09-06T06:38:45.574Z,1.83
2022-09-06T06:41:14.686Z,1.73
2022-09-06T06:43:41.519Z,1.92
2022-09-06T06:46:11.275Z,1.73
2022-09-06T06:48:39.072Z,1.58
2022-09-06T06:51:05.836Z,2.83
2022-09-06T06:53:32.474Z,1.88
2022-09-06T06:55:59.666Z,1.90
2022-09-06T06:58:26.366Z,1.90
2022-09-06T07:00:53.136Z,1.63
2022-09-06T07:03:19.717Z,2.38
2022-09-06T07:08:33.326Z,1.80
2022-09-06T07:11:00.002Z,1.80
2022-09-06T07:13:26.504Z,2.08
2022-09-06T07:16:06.986Z,2.08
2022-09-06T07:18:33.587Z,2.00
2022-09-06T07:26:34.651Z,1.98
2022-09-06T07:29:02.786Z,1.67
2022-09-06T07:34:18.971Z,1.90
2022-09-06T07:36:45.878Z,2.80
2022-09-06T07:39:12.688Z,2.00
2022-09-06T07:41:39.543Z,1.63
2022-09-06T07:44:06.261Z,1.50
2022-09-06T07:46:33.306Z,2.42
2022-09-06T07:49:00.240Z,2.10
2022-09-06T07:51:27.012Z,1.20
2022-09-06T07:54:07.425Z,1.20
2022-09-06T07:56:41.784Z,1.13
2022-09-06T07:59:08.634Z,1.60
2022-09-06T08:01:38.050Z,1.33
2022-09-06T08:04:11.851Z,1.17
2022-09-06T08:09:32.669Z,1.40
2022-09-06T08:11:59.495Z,1.02
2022-09-06T08:14:26.497Z,1.00
2022-09-06T08:16:53.440Z,0.82
2022-09-06T08:19:20.118Z,1.15
2022-09-06T08:21:46.932Z,1.10
2022-09-06T08:24:13.673Z,1.10
2022-09-06T08:26:40.688Z,1.40
2022-09-06T08:29:09.422Z,1.17
2022-09-06T08:31:39.193Z,1.42
2022-09-06T08:34:06.370Z,1.15
2022-09-06T08:36:33.866Z,0.95
2022-09-06T08:39:06.427Z,1.20
2022-09-06T08:41:37.995Z,1.40
2022-09-06T08:47:22.017Z,1.00
2022-09-06T08:49:57.137Z,0.80
2022-09-06T08:55:52.720Z,0.70
2022-09-06T08:58:32.323Z,0.90
2022-09-06T09:01:05.936Z,1.10
2022-09-06T09:03:35.749Z,0.88
2022-09-06T09:06:04.655Z,1.20
2022-09-06T09:08:41.471Z,0.95
2022-09-06T09:11:14.408Z,1.75
2022-09-06T09:13:57.822Z,0.80
2022-09-06T09:16:24.941Z,1.55
2022-09-06T09:18:58.593Z,0.73
2022-09-06T09:21:30.662Z,1.00
2022-09-06T09:24:02.395Z,1.20
2022-09-06T09:26:52.188Z,1.13
2022-09-06T09:29:21.703Z,0.60
2022-09-06T09:31:54.586Z,1.58
2022-09-06T09:34:34.381Z,1.02
2022-09-06T09:40:04.961Z,0.90
2022-09-06T09:42:36.132Z,0.93
2022-09-06T09:45:27.991Z,0.93
2022-09-06T09:47:55.254Z,1.30
2022-09-06T09:50:33.647Z,0.67
2022-09-06T09:53:14.815Z,0.65
2022-09-06T09:55:42.690Z,1.42
2022-09-06T10:00:44.974Z,1.00
2022-09-06T10:03:29.518Z,1.30
2022-09-06T10:06:02.521Z,1.10
2022-09-06T10:08:33.664Z,0.65
2022-09-06T10:11:00.257Z,0.75
2022-09-06T10:13:29.092Z,0.90
2022-09-06T10:15:57.369Z,1.23
2022-09-06T10:18:41.970Z,1.40
2022-09-06T10:21:11.590Z,0.90
2022-09-06T10:26:43.046Z,1.20
2022-09-06T10:29:09.871Z,1.70
2022-09-06T10:31:47.805Z,1.85
2022-09-06T10:34:19.411Z,0.93
2022-09-06T10:37:11.880Z,1.20
2022-09-06T10:39:49.582Z,1.10
2022-09-06T10:42:29.351Z,1.45
2022-09-06T10:45:20.951Z,0.80
2022-09-06T10:47:55.020Z,0.80
2022-09-06T10:50:30.721Z,0.90
2022-09-06T10:53:04.441Z,0.85
2022-09-06T10:55:31.518Z,1.02
2022-09-06T10:58:19.840Z,1.10
2022-09-06T11:00:48.178Z,1.10
2022-09-06T11:04:00.035Z,1.10
2022-09-06T11:06:32.797Z,1.02
2022-09-06T11:09:08.451Z,0.80
2022-09-06T11:11:50.961Z,0.63
2022-09-06T11:14:21.559Z,1.00
2022-09-06T11:16:58.516Z,1.13
2022-09-06T11:19:33.702Z,0.97
2022-09-06T11:22:11.506Z,1.00
2022-09-06T11:27:31.851Z,0.80
2022-09-06T11:30:01.719Z,1.13
2022-09-06T11:32:39.949Z,0.77
2022-09-06T11:35:09.792Z,0.63
2022-09-06T11:37:38.199Z,0.70
2022-09-06T11:40:29.225Z,0.70
2022-09-06T11:42:55.983Z,0.93
2022-09-06T11:45:42.948Z,0.73
2022-09-06T11:48:31.150Z,0.70
2022-09-06T11:50:57.709Z,0.70
2022-09-06T11:53:27.921Z,0.80
2022-09-06T11:56:00.539Z,1.05
2022-09-06T11:58:32.988Z,0.63
2022-09-06T12:01:14.694Z,0.80
2022-09-06T12:04:09.701Z,1.10
2022-09-06T12:07:03.204Z,0.90
2022-09-06T12:09:35.319Z,0.95
2022-09-06T12:12:02.866Z,0.73
2022-09-06T12:14:37.394Z,0.85
2022-09-06T12:17:18.575Z,1.05
2022-09-06T12:19:49.778Z,0.82
2022-09-06T12:22:28.050Z,0.85
2022-09-06T12:24:59.330Z,0.90
2022-09-06T12:27:29.551Z,1.27
2022-09-06T12:29:59.870Z,0.90
2022-09-06T12:32:48.533Z,0.90
2022-09-06T12:38:15.474Z,1.02
2022-09-06T12:40:47.503Z,0.80
2022-09-06T12:43:16.496Z,1.10
2022-09-06T12:45:44.791Z,1.33
2022-09-06T12:48:33.192Z,1.73
2022-09-06T12:51:08.604Z,1.05
2022-09-06T12:53:35.644Z,1.30
2022-09-06T12:56:03.855Z,2.30
2022-09-06T12:58:30.348Z,1.33
2022-09-06T13:01:04.054Z,1.27
2022-09-06T13:03:37.314Z,2.03
2022-09-06T13:06:06.192Z,1.58
2022-09-06T13:08:46.547Z,1.20
2022-09-06T13:11:17.166Z,1.35
2022-09-06T13:13:52.952Z,1.35
2022-09-06T13:16:25.365Z,1.48
2022-09-06T13:18:53.070Z,2.35
2022-09-06T13:21:46.796Z,2.10
2022-09-06T13:24:48.781Z,1.20
2022-09-06T13:27:34.234Z,1.23
2022-09-06T13:30:08.260Z,0.93
2022-09-06T13:32:36.620Z,1.45
2022-09-06T13:35:04.129Z,0.98
2022-09-06T13:37:33.027Z,1.40
2022-09-06T13:40:00.101Z,1.92
2022-09-06T13:42:26.636Z,1.73
2022-09-06T13:44:53.542Z,1.67
2022-09-06T13:47:20.113Z,1.48
2022-09-06T13:49:46.694Z,1.38
2022-09-06T13:52:14.379Z,1.38
2022-09-06T13:57:07.621Z,1.52
2022-09-06T13:59:34.161Z,1.60
2022-09-06T14:02:09.968Z,1.73
2022-09-06T14:04:36.870Z,1.38
2022-09-06T14:07:04.561Z,1.93
2022-09-06T14:12:34.960Z,1.58
2022-09-06T14:15:01.592Z,1.50
2022-09-06T14:17:28.191Z,1.75
2022-09-06T14:19:54.833Z,1.38
2022-09-06T14:22:21.426Z,1.40
2022-09-06T14:24:47.966Z,1.50
2022-09-06T14:27:14.701Z,1.60
2022-09-06T14:29:41.212Z,1.85
2022-09-06T14:32:07.708Z,2.45
2022-09-06T14:34:34.261Z,1.50
2022-09-06T14:37:00.772Z,1.52
2022-09-06T14:39:27.415Z,1.63
2022-09-06T14:41:54.131Z,2.22
2022-09-06T14:44:20.896Z,2.15
2022-09-06T14:46:47.571Z,2.17
2022-09-06T14:49:14.178Z,2.47
2022-09-06T14:51:40.763Z,2.50
2022-09-06T14:54:12.573Z,2.25
2022-09-06T14:56:40.912Z,1.90
2022-09-06T14:59:08.375Z,2.00
2022-09-06T15:01:38.315Z,1.58
2022-09-06T15:04:07.198Z,1.50
2022-09-06T15:06:34.826Z,2.03
2022-09-06T15:09:01.430Z,2.20
2022-09-06T15:11:40.780Z,1.60
2022-09-06T15:14:14.575Z,1.98
2022-09-06T15:16:41.211Z,1.30
2022-09-06T15:19:07.879Z,1.15
2022-09-06T15:21:34.931Z,1.58
2022-09-06T15:24:01.949Z,1.33
2022-09-06T15:26:29.728Z,1.73
2022-09-06T15:31:22.969Z,2.00
2022-09-06T15:33:50.807Z,1.65
2022-09-06T15:38:46.341Z,1.35
2022-09-06T15:41:15.134Z,1.92
2022-09-06T15:43:44.632Z,1.17
2022-09-06T15:46:11.319Z,1.10
2022-09-06T15:48:48.953Z,1.30
2022-09-06T15:53:44.346Z,1.80
2022-09-06T15:56:14.850Z,1.60
2022-09-06T15:58:41.859Z,1.33
2022-09-06T16:01:16.857Z,1.20
2022-09-06T16:03:46.530Z,1.30
2022-09-06T16:06:31.150Z,1.23
2022-09-06T16:09:09.697Z,2.30
2022-09-06T16:11:36.904Z,1.52
2022-09-06T16:14:05.488Z,1.77
2022-09-06T16:16:32.387Z,1.35
2022-09-06T16:18:59.077Z,1.63
2022-09-06T16:21:29.872Z,1.70
2022-09-06T16:24:05.357Z,1.30
2022-09-06T16:26:34.778Z,1.42
2022-09-06T16:29:03.171Z,1.50
2022-09-06T16:31:30.396Z,2.03
2022-09-06T16:33:58.112Z,1.60
2022-09-06T16:36:25.683Z,1.38
2022-09-06T16:38:52.452Z,1.10
2022-09-06T16:41:22.885Z,1.27
2022-09-06T16:43:49.560Z,2.28
2022-09-06T16:46:17.349Z,0.90
2022-09-06T16:51:16.197Z,0.85
2022-09-06T16:53:45.439Z,1.17
2022-09-06T16:56:14.685Z,1.35
2022-09-06T16:58:41.977Z,1.30
2022-09-06T17:01:09.726Z,1.20
2022-09-06T17:03:37.512Z,1.30
2022-09-06T17:08:32.334Z,1.43
2022-09-06T17:11:03.317Z,1.70
2022-09-06T17:13:30.601Z,1.60
2022-09-06T17:15:57.685Z,1.30
2022-09-06T17:18:24.610Z,1.13
2022-09-06T17:20:58.727Z,1.45
2022-09-06T17:23:25.446Z,1.48
2022-09-06T17:25:52.188Z,1.40
2022-09-06T17:28:19.824Z,1.60
2022-09-06T17:30:46.482Z,1.48
2022-09-06T17:33:13.628Z,1.95
2022-09-06T17:35:40.424Z,1.83
2022-09-06T17:38:07.106Z,1.70
2022-09-06T17:40:34.225Z,2.08
2022-09-06T17:43:00.992Z,1.80
2022-09-06T17:45:28.144Z,1.85
2022-09-06T17:47:54.712Z,1.60
2022-09-06T17:50:21.417Z,2.28
2022-09-06T17:52:50.939Z,1.70
2022-09-06T17:55:17.598Z,1.58
2022-09-06T17:57:44.191Z,1.35
2022-09-06T18:00:11.503Z,1.70
2022-09-06T18:02:38.089Z,2.08
2022-09-06T18:05:04.838Z,2.00
2022-09-06T18:07:31.554Z,1.13
2022-09-06T18:09:58.263Z,0.90
2022-09-06T18:12:24.973Z,1.45
2022-09-06T18:14:52.000Z,1.25
2022-09-06T18:17:18.545Z,1.30
2022-09-06T18:19:45.176Z,1.30
2022-09-06T18:22:11.963Z,0.80
2022-09-06T18:24:38.601Z,1.10
2022-09-06T18:27:05.205Z,0.95
2022-09-06T18:29:31.981Z,0.80
2022-09-06T18:31:58.795Z,0.80
2022-09-06T18:34:25.389Z,1.65
2022-09-06T18:36:52.130Z,1.40
2022-09-06T18:39:18.861Z,1.13
2022-09-06T18:41:45.623Z,1.08
2022-09-06T18:44:12.297Z,1.00
2022-09-06T18:46:39.177Z,1.20
2022-09-06T18:49:06.124Z,1.05
2022-09-06T18:51:33.186Z,1.30
2022-09-06T18:54:00.314Z,1.15
2022-09-06T18:56:27.144Z,1.10
2022-09-06T18:58:58.067Z,2.45
2022-09-06T19:01:26.256Z,1.95
2022-09-06T19:03:52.943Z,1.35
2022-09-06T19:06:21.366Z,1.40
2022-09-06T19:08:49.036Z,1.20
2022-09-06T19:11:18.262Z,1.42
2022-09-06T19:13:46.950Z,1.63
2022-09-06T19:16:14.443Z,1.40
2022-09-06T19:18:42.075Z,1.15
2022-09-06T19:21:14.256Z,1.50
2022-09-06T19:23:42.727Z,1.65
2022-09-06T19:26:12.712Z,1.50
2022-09-06T19:28:40.128Z,1.33
2022-09-06T19:31:13.466Z,1.27
2022-09-06T19:33:41.668Z,1.60
2022-09-06T19:39:01.521Z,1.05
2022-09-06T19:43:55.487Z,2.03
2022-09-06T19:46:22.995Z,1.10
2022-09-06T19:48:51.641Z,1.30
2022-09-06T19:51:19.632Z,1.55
2022-09-06T19:53:51.942Z,1.45
2022-09-06T19:56:21.379Z,1.20
2022-09-06T19:58:53.535Z,1.92
2022-09-06T20:01:20.238Z,1.30
2022-09-06T20:03:46.974Z,1.50
2022-09-06T20:06:13.807Z,1.50
2022-09-06T20:08:40.533Z,1.70
2022-09-06T20:11:08.732Z,1.60
2022-09-06T20:13:37.117Z,0.88
2022-09-06T20:16:05.228Z,1.13
2022-09-06T20:18:32.248Z,1.13
2022-09-06T20:20:58.893Z,1.40
2022-09-06T20:23:27.141Z,1.20
2022-09-06T20:26:08.075Z,1.00
2022-09-06T20:28:35.255Z,1.60
2022-09-06T20:31:05.009Z,1.13
2022-09-06T20:33:32.906Z,1.70
2022-09-06T20:36:01.209Z,1.05
2022-09-06T20:38:27.847Z,1.60
2022-09-06T20:41:07.429Z,1.00
2022-09-06T20:43:35.903Z,1.45
2022-09-06T20:46:04.692Z,1.20
2022-09-06T20:48:32.131Z,1.20
2022-09-06T20:51:04.175Z,1.33
2022-09-06T20:53:31.275Z,1.20
2022-09-06T20:56:06.530Z,1.73
2022-09-06T20:58:33.424Z,1.33
2022-09-06T21:01:05.140Z,1.20
2022-09-06T21:03:31.747Z,1.02
2022-09-06T21:05:58.458Z,1.40
2022-09-06T21:08:25.588Z,1.40
2022-09-06T21:10:59.395Z,1.55
2022-09-06T21:13:26.094Z,1.23
2022-09-06T21:15:52.729Z,1.38
2022-09-06T21:18:19.301Z,1.42
2022-09-06T21:20:55.837Z,1.73
2022-09-06T21:23:24.187Z,1.50
2022-09-06T21:25:59.307Z,0.85
2022-09-06T21:28:35.082Z,1.23
2022-09-06T21:31:05.925Z,1.40
2022-09-06T21:33:33.170Z,1.35
2022-09-06T21:36:30.468Z,1.42
2022-09-06T21:39:02.366Z,1.05
2022-09-06T21:41:31.643Z,1.33
2022-09-06T21:44:00.810Z,1.08
2022-09-06T21:46:33.689Z,1.25
2022-09-06T21:49:02.583Z,1.20
2022-09-06T21:51:29.336Z,1.25
2022-09-06T21:53:56.772Z,1.25
2022-09-06T21:56:24.546Z,1.50
2022-09-06T21:58:53.116Z,1.67
2022-09-06T22:01:19.869Z,1.63
2022-09-06T22:03:46.904Z,1.35
2022-09-06T22:06:16.987Z,1.15
2022-09-06T22:08:43.763Z,1.70
2022-09-06T22:11:16.106Z,1.10
2022-09-06T22:13:43.572Z,1.40
2022-09-06T22:16:11.753Z,1.00
2022-09-06T22:21:11.038Z,1.20
2022-09-06T22:23:39.427Z,1.75
2022-09-06T22:26:09.052Z,1.10
2022-09-06T22:28:36.417Z,1.30
2022-09-06T22:31:03.108Z,1.40
2022-09-06T22:33:30.260Z,1.60
2022-09-06T22:35:57.044Z,1.77
2022-09-06T22:38:23.669Z,1.40
2022-09-06T22:40:50.465Z,1.80
2022-09-06T22:43:17.024Z,1.70
2022-09-06T22:45:47.441Z,1.42
2022-09-06T22:48:16.917Z,2.05
2022-09-06T22:50:44.332Z,1.88
2022-09-06T22:53:11.872Z,1.35
2022-09-06T22:55:38.949Z,1.40
2022-09-06T22:58:05.953Z,2.05
2022-09-06T23:00:35.729Z,1.58
2022-09-06T23:03:02.541Z,1.17
2022-09-06T23:05:30.929Z,1.55
2022-09-06T23:07:57.637Z,2.28
2022-09-06T23:10:24.294Z,1.45
2022-09-06T23:12:53.948Z,1.20
2022-09-06T23:15:20.493Z,1.33
2022-09-06T23:17:47.076Z,1.15
2022-09-06T23:20:13.806Z,1.48
2022-09-06T23:22:40.949Z,1.83
2022-09-06T23:25:08.488Z,1.77
2022-09-06T23:27:35.108Z,1.50
2022-09-06T23:30:01.811Z,1.50
2022-09-06T23:32:28.379Z,1.70
2022-09-06T23:34:54.931Z,1.55
2022-09-06T23:37:21.989Z,1.40
2022-09-06T23:39:48.790Z,1.13
2022-09-06T23:42:15.380Z,1.17
2022-09-06T23:44:42.020Z,1.50
2022-09-06T23:47:08.615Z,1.67
2022-09-06T23:49:35.134Z,1.35
2022-09-06T23:52:01.907Z,1.73
2022-09-06T23:54:28.524Z,1.70
2022-09-06T23:56:55.099Z,1.33
2022-09-06T23:59:21.772Z,1.73
